Huvudsida
METAR-TAF:

METAR-TAF

Flygplatser :

Kristianstad Österlen Airport

Kristianstad, Sverige

latitud: 55-55N, longitud: 014-05E, höjd: 23 m

Aktuellt väderrapport

Denna rapport gjordes för 26 minuter sedan, klockan 15:20 UTC
Vind 11 kt från syd/sydväst
Temperatur 25°C
Fuktighet 54%
Tryck 1015 hPa
Sikt 10 km eller mer

METAR: ESMK 161520Z AUTO 20011KT 9999 NCD 25/15 Q1015

Tid: 17:46 (15:46 UTC)

Väderprognos

Denna rapport gjordes för 1 timme och 44 minuter sedan, klockan 14:02 UTC
Prognos gäller från 16 kl. 15 UTC till 16 kl. 19 UTC
Vind 12 kt från syd/sydväst
Sikt 10 km eller mer
Spridda moln på en höjd av 3000 ft

TAF: ESMK 161402Z 1615/1619 20012KT 9999 SCT030

Aktuella väderrapporter och prognoser från 4000 flygplatser (METAR- och TAF-rapporter).

De tillgängliga stationerna syns som gula och röda prickar på kartan.

För musen över prickarna för att se namnen på stationerna.

Klicka sedan för att få väderrapporter och prognoser.

För att ändra kartan: Klicka på de gröna knapparna med ett svart kors på för att zooma in; den gröna knappen med ett streck på för att zooma ut; eller på de gröna pilarna för angränsande kartor.


METAR-TAF: